Terminal Aerodrome Forecast
Issued by NWS

Home | Current Version | Previous Version | Text Only | Print | Product List | Glossary On
Versions: 1 2 3 4 5 6 7 8 9 10 11 12 13 14 15
000
FTUS45 KTFX 291100 RRA
TAFCTB
TAF
KCTB 291145Z 2912/3012 35017KT 4SM -SN SCT030 BKN050
      TEMPO 2912/2914 2SM -SN BKN030
     FM291400 36015KT P6SM BKN050
     FM291800 36012KT P6SM BKN080
     FM300300 35006KT P6SM SCT090=

USA.gov is the U.S. government's official web portal to all federal, state and local government web resources and services.